Ride Results

Johnny Green Memorial (18-10-2014)
Ride distance: 80.0 km

Outcomes - Johnny Green Memorial (18-10-2014)
Division No. of Entries Retired / DNE Completed Withdrawn Ineligible V/O Percentage Completed
HW 10 - 10 - - - 100.00%
MW 5 - 5 - - - 100.00%
LW 13 - 11 1 - 1 84.62%
JN 8 - 5 1 - 2 62.50%
Totals 36 - 31 2 - 3 86.11%
Results - Johnny Green Memorial (18-10-2014)
No. Rider Horse Place Time Leg Speeds Total
Km/Hr
H/R bpm
Heavyweight
38 Tony Purton Beer Street Lizzy B 1 4:10:00 19.5, 18.8 19.20 36, 46, 57 (Avg:51)
65 Mark Green Scrap 2 4:10:01 19.3, 19.0 19.20 38, 46, 60 (Avg:53)
194 Robby Walsh Free Spirit Czar 3 (BC) 4:10:15 19.6, 18.7 19.18 40, 49, 55 (Avg:52)
G Greg Henry Bellawongarah Beau 4 6:26:00 15.0, 10.5 12.44 42, 46, 56 (Avg:51)
93 Jeremy Ford Ruby Running Bare 5 6:40:00 13.2, 10.9 12.00 43, 47, 55 (Avg:51)
122 Ged Nicklason Wongawol Digger 5 6:40:00 13.2, 10.9 12.00 42, 50, 59 (Avg:54)
137 John Shoobridge Tex 7 6:59:00 15.3, 9.1 11.46 39, 48, 60 (Avg:54)
82 Mark Dunn Calypso 8 7:45:00 11.3, 9.4 10.32 37, 53, 59 (Avg:56)
199 Dennis Foley Jnr Indy 9 7:53:11 11.0, 9.4 10.14 42, 44, 47 (Avg:45)
29 Trenton Huxtable Highland View Barbara 10 8:09:00 10.8, 8.9 9.82 45, 49, 57 (Avg:53)
Middleweight
136 Kaye Mitchell Beer Street Bluewitch 1 (BC) 4:10:00 19.3, 19.0 19.20 33, 42, 45 (Avg:43)
143 Pauline Goodwin Marley Hosanna 2 6:39:00 17.9, 9.0 12.03 44, 43, 46 (Avg:44)
158 Steve Wilson Echo Aladin 3 6:39:10 17.9, 9.0 12.03 37, 45, 50 (Avg:47)
216 David Evelyn Kalody Park Eclipse 4 6:49:00 12.3, 11.1 11.74 49, 46, 60 (Avg:53)
69 Tracey Wyllie Awarran Park Summer Shayde 5 7:52:11 10.4, 9.8 10.17 45, 44, 51 (Avg:47)
Lightweight
150 Emily Shadbolt Tanbark Banjo 1 (BC) 4:01:00 19.1, 20.6 19.92 30, 45, 45 (Avg:45)
42 Dianne Walsh Kalkadoon Malachi 2 4:17:00 18.6, 18.7 18.68 36, 46, 47 (Avg:46)
138 Kristen Robertson Kerewong Mingus 3 4:17:10 18.7, 18.5 18.66 45, 47, 57 (Avg:52)
253 Kelly Woodhouse Malricia Delilah 4 5:58:00 15.2, 11.9 13.41 37, 43, 46 (Avg:44)
37 Jen Clingly Imaj Zamir 5 6:40:00 13.2, 10.9 12.00 32, 43, 60 (Avg:51)
235 Jan Clement Kalody Park Empire Blaze 6 6:49:11 12.3, 11.1 11.73 37, 42, 52 (Avg:47)
104 Joshua Williams Cadenza Castiel 7 7:00:00 12.1, 10.8 11.43 36, 48, 55 (Avg:51)
272 Angie Clark Castlebar Galahad 8 7:00:10 12.1, 10.8 11.42 42, 44, 47 (Avg:45)
100 Trish Smith Anglesea Piccolo 9 7:40:00 11.9, 9.2 10.43 41, 46, 48 (Avg:47)
J Tracey Nutting Acaciavej Shadowy Prince 10 7:40:10 11.6, 9.4 10.43 35, 42, 45 (Avg:43)
203 Ellie Woodhouse Temar Mahavee 11 7:52:00 10.4, 9.8 10.17 34, 41, 49 (Avg:45)
278 Mindy Davies Castlebar Khafif Withdrawn L2 0:00:00 - - 48, 45, 50 (Avg:47)
192 Christal Rizk Kalody Park Celebration Lame L1 0:00:00 9.5 - 42, 52, 55 (Avg:53)
Junior
209 Grace Huxtable Highland View Jess 1 6:49:10 11.2, 12.2 11.73 42, 54, 50 (Avg:52)
74 Felicity Perry Jaggah Ka 2 7:52:10 10.4, 9.8 10.17 36, 41, 54 (Avg:47)
249 Liam Davies Taghrooda 3 (BC) 7:53:00 11.2, 9.2 10.15 44, 49, 50 (Avg:49)
310 Sarah Parker Broken Heart Warrior 3 7:53:00 11.3, 9.1 10.15 36, 47, 49 (Avg:48)
286 Pyper Page Willow Lodge El Maximus 5 7:53:13 11.0, 9.4 10.14 36, 46, 59 (Avg:52)
114 Brittany Farrell Wattlelea Zaharra Heart Rate L2 0:00:00 13.2, 10.9 - 48, 55, 68 (Avg:61)
190 Alice Mitchell Beer Street Takone Withdrawn L1 0:00:00 - - 35, 54 (Avg:54)
285 Bronte Page Johny Lame L1 0:00:00 11.2 - 36, 46 (Avg:46)